Aérodrome :
LOGIN :

S'inscrire | Disclaimer

   EN    FR    IT 

 










Légende :    VFR   VFR Marginal   IFR   IFR Intensif   IFR Très Intensif
Visi : 
Plafond : 
>= 8 km
>= 3000ft
5 à 8 km
1000 à 3000 ft
1500m à 5 km
500 à 1000 ft
800 à 1500m
200 à 500 ft
< 800m
< 200 ft
Symboles :   Orages  Brouillard  Fortes neiges  Fortes précipitations  Vent > 20 kt
SIGMETs :   Divers  Orages  Givrage  Turbulence  Onde Orograph.  Cendres Volcan.






- Altitude de l'aérodrome : 249 ft


EGOS - RAF Shawbury

DERNIER METAR :
  • 271520Z AUTO 23012KT 9999 FEW042/// BKN061/// 16/08 Q1013

METARs EXPIRÉS :
  • 271450Z AUTO 24011KT 9999 FEW043/// BKN071/// 15/07 Q1012
  • 271420Z AUTO 24012KT 9999 BR FEW044/// 16/07 Q1012
  • 271350Z AUTO 25012KT 9999 BR SCT042/// 15/07 Q1012
  • 271320Z AUTO 25011KT 9999 BR FEW042/// 17/08 Q1012
  • 271250Z AUTO 24011KT 9999 BR SCT072/// 15/06 Q1012
  • 271220Z AUTO 22013KT 9999 BR FEW036/// SCT073/// 14/05 Q1012
  • 271150Z AUTO 23013KT 9999 FEW035/// BKN081/// 14/06 Q1012
  • 271120Z AUTO 26010KT 9999 BKN034/// SCT070/// 14/07 Q1012
  • 271050Z AUTO 24013KT 9999 // FEW030/// 15/09 Q1012

Prévision TAF périmée.



MET'MAP, la Météo Aéronautique d'un coup d'oeil ! - Copyright ORBIFLY Décembre 2007 - Disclaimer

ORBIFLY MET'MAP TEAM :

Programmation & Développement : Alexandra Zaïnal
Sur une idée originale de : Baudouin d'Aumeries
Soutien technique & logistique : Manuel Goepfert
Assistance : Marc-Olivier Méhu




SOURCES & CREDITS :

   NOAA